createdAt,value
2017-08-09T00:00:48.274Z,60.34
2017-08-09T00:02:02.439Z,60.57
2017-08-09T00:03:04.326Z,60.53
2017-08-09T00:04:06.217Z,60.72
2017-08-09T00:05:08.101Z,60.17
2017-08-09T00:06:09.924Z,60.37
2017-08-09T00:07:11.747Z,60.37
2017-08-09T00:08:13.632Z,60.27
2017-08-09T00:09:15.528Z,59.98
2017-08-09T00:10:17.414Z,60.17
2017-08-09T00:11:31.574Z,60.37
2017-08-09T00:12:33.472Z,60.47
2017-08-09T00:13:35.369Z,60.75
2017-08-09T00:14:37.265Z,60.95
2017-08-09T00:15:39.088Z,61.15
2017-08-09T00:16:40.914Z,61.40
2017-08-09T00:17:42.800Z,61.69
2017-08-09T00:18:44.687Z,61.33
2017-08-09T00:19:46.569Z,61.15
2017-08-09T00:21:00.779Z,61.72
2017-08-09T00:22:02.669Z,61.30
2017-08-09T00:23:04.549Z,61.53
2017-08-09T00:24:06.441Z,61.53
2017-08-09T00:25:08.274Z,61.63
2017-08-09T00:26:10.107Z,61.53
2017-08-09T00:27:12.000Z,61.43
2017-08-09T00:28:13.894Z,61.05
2017-08-09T00:29:15.778Z,61.15
2017-08-09T00:30:29.939Z,61.72
2017-08-09T00:31:31.825Z,61.43
2017-08-09T00:32:33.712Z,61.89
2017-08-09T00:33:35.607Z,61.72
2017-08-09T00:34:37.430Z,61.53
2017-08-09T00:35:39.256Z,61.15
2017-08-09T00:36:41.142Z,61.50
2017-08-09T00:37:43.037Z,62.21
2017-08-09T00:38:44.924Z,61.72
2017-08-09T00:39:59.067Z,61.89
2017-08-09T00:41:00.903Z,62.40
2017-08-09T00:42:02.738Z,62.66
2017-08-09T00:43:04.622Z,62.66
2017-08-09T00:44:06.505Z,62.85
2017-08-09T00:45:08.376Z,62.95
2017-08-09T00:46:10.204Z,63.24
2017-08-09T00:47:12.025Z,63.92
2017-08-09T00:48:13.914Z,63.92
2017-08-09T00:49:28.136Z,64.69
2017-08-09T00:50:30.021Z,64.50
2017-08-09T00:51:31.918Z,65.34
2017-08-09T00:52:33.800Z,65.92
2017-08-09T00:53:35.622Z,66.20
2017-08-09T00:54:37.444Z,66.11
2017-08-09T00:55:39.330Z,66.50
2017-08-09T00:56:41.226Z,66.69
2017-08-09T00:57:43.115Z,66.69
2017-08-09T00:58:57.275Z,66.69
2017-08-09T00:59:59.165Z,66.98
2017-08-09T01:01:01.052Z,67.27
2017-08-09T01:02:02.936Z,67.75
2017-08-09T01:03:04.769Z,68.14
2017-08-09T01:04:06.603Z,68.24
2017-08-09T01:05:08.488Z,68.52
2017-08-09T01:06:10.371Z,68.91
2017-08-09T01:07:12.258Z,69.30
2017-08-09T01:08:26.429Z,69.36
2017-08-09T01:09:28.321Z,69.36
2017-08-09T01:10:30.211Z,70.04
2017-08-09T01:11:32.089Z,69.65
2017-08-09T01:12:33.914Z,69.84
2017-08-09T01:13:35.749Z,69.74
2017-08-09T01:14:37.644Z,70.72
2017-08-09T01:15:39.530Z,70.32
2017-08-09T01:16:41.413Z,70.97
2017-08-09T01:17:55.577Z,72.13
2017-08-09T01:18:57.459Z,72.22
2017-08-09T01:19:59.356Z,73.00
2017-08-09T01:21:01.240Z,72.13
2017-08-09T01:22:03.064Z,72.42
2017-08-09T01:23:04.897Z,73.19
2017-08-09T01:24:06.783Z,73.48
2017-08-09T01:25:08.670Z,73.48
2017-08-09T01:26:10.559Z,73.48
2017-08-09T01:27:24.716Z,74.35
2017-08-09T01:28:26.614Z,74.25
2017-08-09T01:29:28.514Z,74.25
2017-08-09T01:30:30.403Z,74.25
2017-08-09T01:31:32.227Z,74.35
2017-08-09T01:32:34.058Z,74.41
2017-08-09T01:33:35.942Z,74.73
2017-08-09T01:34:37.838Z,74.41
2017-08-09T01:35:39.721Z,74.51
2017-08-09T01:36:53.887Z,74.99
2017-08-09T01:37:55.770Z,74.99
2017-08-09T01:38:57.666Z,75.37
2017-08-09T01:39:59.579Z,75.57
2017-08-09T01:41:01.384Z,75.37
2017-08-09T01:42:03.204Z,75.47
2017-08-09T01:43:05.096Z,75.47
2017-08-09T01:44:06.980Z,75.67
2017-08-09T01:45:08.873Z,75.18
2017-08-09T01:46:23.033Z,75.76
2017-08-09T01:47:24.927Z,75.27
2017-08-09T01:48:26.812Z,74.99
2017-08-09T01:49:28.698Z,75.47
2017-08-09T01:50:30.530Z,75.27
2017-08-09T01:51:32.353Z,75.85
2017-08-09T01:52:34.251Z,75.95
2017-08-09T01:53:36.143Z,75.95
2017-08-09T01:54:38.025Z,75.85
2017-08-09T01:55:52.186Z,75.85
2017-08-09T01:56:54.072Z,75.95
2017-08-09T01:57:55.960Z,75.47
2017-08-09T01:58:57.860Z,75.57
2017-08-09T01:59:59.692Z,76.05
2017-08-09T02:01:01.514Z,75.95
2017-08-09T02:02:03.399Z,75.92
2017-08-09T02:03:05.287Z,76.50
2017-08-09T02:04:07.171Z,76.59
2017-08-09T02:05:21.327Z,77.42
2017-08-09T02:06:23.213Z,78.29
2017-08-09T02:07:25.098Z,78.29
2017-08-09T02:08:26.988Z,78.19
2017-08-09T02:09:28.805Z,78.19
2017-08-09T02:10:30.625Z,78.86
2017-08-09T02:11:32.511Z,79.16
2017-08-09T02:12:34.400Z,80.27
2017-08-09T02:13:36.286Z,80.56
2017-08-09T02:14:50.442Z,80.46
2017-08-09T02:15:52.327Z,81.14
2017-08-09T02:16:54.222Z,81.14
2017-08-09T02:17:56.109Z,80.66
2017-08-09T02:18:57.934Z,80.31
2017-08-09T02:19:59.757Z,80.31
2017-08-09T02:21:01.646Z,80.12
2017-08-09T02:22:03.533Z,79.83
2017-08-09T02:23:05.430Z,79.74
2017-08-09T02:24:19.585Z,79.83
2017-08-09T02:25:21.469Z,79.74
2017-08-09T02:26:23.352Z,80.79
2017-08-09T02:27:25.247Z,81.04
2017-08-09T02:28:27.077Z,81.43
2017-08-09T02:29:28.909Z,82.10
2017-08-09T02:30:30.796Z,82.93
2017-08-09T02:31:32.684Z,83.70
2017-08-09T02:32:34.569Z,83.41
2017-08-09T02:33:48.728Z,84.18
2017-08-09T02:34:50.614Z,83.99
2017-08-09T02:35:52.501Z,84.18
2017-08-09T02:36:54.402Z,84.09
2017-08-09T02:37:56.226Z,84.09
2017-08-09T02:38:58.049Z,84.18
2017-08-09T02:39:59.931Z,83.61
2017-08-09T02:41:01.878Z,83.61
2017-08-09T02:42:03.894Z,83.70
2017-08-09T02:43:18.031Z,82.74
2017-08-09T02:44:19.912Z,82.64
2017-08-09T02:45:21.793Z,82.06
2017-08-09T02:46:23.676Z,81.96
2017-08-09T02:47:25.498Z,81.77
2017-08-09T02:48:27.320Z,81.24
2017-08-09T02:49:29.213Z,81.52
2017-08-09T02:50:31.097Z,81.14
2017-08-09T02:51:32.977Z,80.27
2017-08-09T02:52:47.133Z,80.37
2017-08-09T02:53:49.014Z,79.98
2017-08-09T02:54:50.901Z,79.89
2017-08-09T02:55:52.782Z,79.79
2017-08-09T02:56:54.605Z,79.50
2017-08-09T02:57:56.427Z,79.50
2017-08-09T02:58:58.309Z,79.41
2017-08-09T03:00:00.205Z,78.83
2017-08-09T03:01:02.080Z,79.02
2017-08-09T03:02:16.238Z,79.11
2017-08-09T03:03:18.121Z,78.44
2017-08-09T03:04:20.004Z,78.54
2017-08-09T03:05:21.888Z,78.63
2017-08-09T03:06:23.710Z,78.73
2017-08-09T03:07:25.532Z,79.02
2017-08-09T03:08:27.416Z,79.31
2017-08-09T03:09:29.302Z,79.75
2017-08-09T03:10:31.183Z,80.04
2017-08-09T03:11:45.338Z,80.43
2017-08-09T03:12:47.218Z,80.43
2017-08-09T03:13:49.101Z,80.43
2017-08-09T03:14:50.994Z,80.38
2017-08-09T03:15:52.817Z,80.81
2017-08-09T03:16:54.638Z,80.38
2017-08-09T03:17:56.521Z,81.45
2017-08-09T03:18:58.414Z,80.77
2017-08-09T03:20:00.296Z,80.91
2017-08-09T03:21:14.454Z,81.29
2017-08-09T03:22:16.336Z,81.39
2017-08-09T03:23:18.221Z,81.01
2017-08-09T03:24:20.103Z,81.20
2017-08-09T03:25:21.926Z,81.10
2017-08-09T03:26:23.746Z,81.29
2017-08-09T03:27:25.630Z,80.81
2017-08-09T03:28:27.528Z,80.85
2017-08-09T03:29:29.412Z,80.46
2017-08-09T03:30:43.569Z,80.76
2017-08-09T03:31:45.456Z,80.46
2017-08-09T03:32:47.337Z,79.98
2017-08-09T03:33:49.232Z,80.46
2017-08-09T03:34:51.057Z,80.46
2017-08-09T03:35:52.878Z,80.76
2017-08-09T03:36:54.774Z,80.46
2017-08-09T03:37:56.658Z,80.18
2017-08-09T03:38:58.546Z,79.60
2017-08-09T03:40:12.703Z,79.79
2017-08-09T03:41:14.585Z,79.50
2017-08-09T03:42:16.472Z,79.50
2017-08-09T03:43:18.361Z,78.92
2017-08-09T03:44:20.179Z,78.83
2017-08-09T03:45:22.002Z,78.92
2017-08-09T03:46:23.888Z,78.92
2017-08-09T03:47:25.773Z,79.02
2017-08-09T03:48:27.658Z,79.02
2017-08-09T03:49:41.818Z,79.31
2017-08-09T03:50:43.705Z,79.41
2017-08-09T03:51:45.595Z,79.02
2017-08-09T03:52:47.477Z,78.73
2017-08-09T03:53:49.311Z,78.44
2017-08-09T03:54:51.146Z,78.54
2017-08-09T03:55:53.033Z,78.44
2017-08-09T03:56:54.933Z,77.76
2017-08-09T03:57:56.814Z,77.48
2017-08-09T03:59:10.974Z,77.23
2017-08-09T04:00:12.860Z,77.42
2017-08-09T04:01:14.747Z,76.55
2017-08-09T04:02:16.634Z,76.10
2017-08-09T04:03:18.471Z,75.92
2017-08-09T04:04:20.295Z,75.53
2017-08-09T04:05:22.183Z,74.51
2017-08-09T04:06:24.072Z,74.02
2017-08-09T04:07:25.966Z,72.96
2017-08-09T04:08:40.129Z,72.80
2017-08-09T04:09:42.026Z,72.19
2017-08-09T04:10:43.931Z,72.28
2017-08-09T04:11:45.803Z,72.09
2017-08-09T04:12:47.640Z,72.28
2017-08-09T04:13:49.465Z,72.22
2017-08-09T04:14:51.352Z,71.16
2017-08-09T04:15:53.244Z,70.14
2017-08-09T04:16:55.136Z,69.56
2017-08-09T04:18:09.292Z,68.30
2017-08-09T04:19:11.179Z,68.40
2017-08-09T04:20:13.068Z,67.75
2017-08-09T04:21:14.955Z,67.69
2017-08-09T04:22:16.782Z,66.24
2017-08-09T04:23:18.618Z,64.21
2017-08-09T04:24:20.505Z,64.40
2017-08-09T04:25:22.398Z,65.17
2017-08-09T04:26:24.295Z,65.47
2017-08-09T04:27:38.461Z,65.85
2017-08-09T04:28:40.342Z,66.05
2017-08-09T04:29:45.265Z,66.05
2017-08-09T04:30:47.151Z,65.50
2017-08-09T04:31:49.011Z,65.11
2017-08-09T04:32:50.834Z,65.05
2017-08-09T04:33:52.736Z,64.11
2017-08-09T04:34:54.625Z,62.98
2017-08-09T04:35:56.523Z,62.10
2017-08-09T04:37:10.686Z,61.55
2017-08-09T04:38:12.572Z,60.32
2017-08-09T04:39:14.464Z,59.48
2017-08-09T04:40:16.351Z,58.64
2017-08-09T04:41:18.182Z,57.86
2017-08-09T04:42:20.007Z,56.52
2017-08-09T04:43:21.898Z,55.94
2017-08-09T04:44:23.788Z,55.29
2017-08-09T04:45:25.681Z,54.61
2017-08-09T04:46:39.894Z,53.28
2017-08-09T04:47:41.783Z,52.69
2017-08-09T04:48:43.683Z,51.94
2017-08-09T04:49:45.573Z,51.75
2017-08-09T04:50:47.403Z,50.99
2017-08-09T04:51:49.237Z,50.90
2017-08-09T04:52:51.125Z,50.70
2017-08-09T04:53:53.022Z,49.66
2017-08-09T04:54:54.922Z,49.37
2017-08-09T04:56:09.090Z,49.19
2017-08-09T04:57:10.978Z,49.10
2017-08-09T04:58:12.870Z,49.10
2017-08-09T04:59:14.762Z,48.51
2017-08-09T05:00:16.594Z,49.10
2017-08-09T05:01:18.418Z,48.61
2017-08-09T05:02:20.321Z,48.71
2017-08-09T05:03:22.213Z,48.41
2017-08-09T05:04:24.103Z,48.44
2017-08-09T05:05:38.286Z,48.44
2017-08-09T05:06:40.174Z,48.05
2017-08-09T05:07:42.066Z,48.05
2017-08-09T05:08:43.959Z,47.75
2017-08-09T05:09:45.789Z,48.54
2017-08-09T05:10:47.619Z,48.34
2017-08-09T05:11:49.510Z,48.54
2017-08-09T05:12:51.403Z,47.66
2017-08-09T05:13:53.291Z,47.85
2017-08-09T05:15:07.457Z,47.85
2017-08-09T05:16:09.345Z,47.85
2017-08-09T05:17:11.243Z,47.75
2017-08-09T05:18:13.131Z,47.92
2017-08-09T05:19:14.963Z,48.02
2017-08-09T05:20:16.791Z,48.49
2017-08-09T05:21:18.685Z,48.95
2017-08-09T05:22:20.585Z,49.63
2017-08-09T05:23:22.477Z,50.87
2017-08-09T05:24:36.639Z,51.43
2017-08-09T05:25:38.531Z,52.67
2017-08-09T05:26:40.424Z,53.22
2017-08-09T05:27:42.314Z,53.52
2017-08-09T05:28:44.155Z,53.88
2017-08-09T05:29:45.983Z,54.07
2017-08-09T05:30:47.872Z,54.63
2017-08-09T05:31:49.763Z,55.31
2017-08-09T05:32:51.651Z,55.21
2017-08-09T05:34:05.818Z,55.50
2017-08-09T05:35:07.704Z,55.69
2017-08-09T05:36:09.604Z,55.79
2017-08-09T05:37:11.505Z,56.45
2017-08-09T05:38:13.345Z,56.93
2017-08-09T05:39:15.174Z,56.74
2017-08-09T05:40:17.065Z,57.12
2017-08-09T05:41:18.956Z,57.51
2017-08-09T05:42:20.846Z,57.51
2017-08-09T05:43:35.010Z,57.70
2017-08-09T05:44:36.897Z,57.42
2017-08-09T05:45:38.788Z,57.48
2017-08-09T05:46:40.676Z,58.36
2017-08-09T05:47:42.505Z,58.26
2017-08-09T05:48:44.343Z,58.84
2017-08-09T05:49:46.236Z,58.26
2017-08-09T05:50:48.123Z,59.42
2017-08-09T05:51:50.022Z,59.59
2017-08-09T05:53:04.190Z,59.69
2017-08-09T05:54:06.076Z,59.59
2017-08-09T05:55:07.965Z,59.69
2017-08-09T05:56:09.854Z,58.91
2017-08-09T05:57:11.693Z,59.30
2017-08-09T05:58:13.521Z,59.30
2017-08-09T05:59:15.407Z,59.49
2017-08-09T06:00:17.297Z,59.30
2017-08-09T06:01:19.197Z,59.00
2017-08-09T06:02:33.367Z,58.26
2017-08-09T06:03:35.256Z,58.55
2017-08-09T06:04:37.148Z,57.87
2017-08-09T06:05:39.040Z,57.29
2017-08-09T06:06:40.869Z,57.32
2017-08-09T06:07:42.708Z,57.03
2017-08-09T06:08:44.599Z,56.74
2017-08-09T06:09:46.492Z,56.47
2017-08-09T06:10:48.381Z,56.28
2017-08-09T06:12:02.547Z,55.99
2017-08-09T06:13:04.435Z,55.79
2017-08-09T06:14:06.327Z,56.09
2017-08-09T06:15:08.217Z,56.45
2017-08-09T06:16:10.047Z,57.22
2017-08-09T06:17:11.874Z,57.61
2017-08-09T06:18:13.767Z,57.42
2017-08-09T06:19:15.657Z,57.51
2017-08-09T06:20:17.547Z,58.39
2017-08-09T06:21:31.711Z,58.45
2017-08-09T06:22:33.599Z,58.36
2017-08-09T06:23:35.491Z,58.45
2017-08-09T06:24:37.382Z,58.74
2017-08-09T06:25:39.209Z,58.65
2017-08-09T06:26:41.049Z,59.33
2017-08-09T06:27:42.950Z,58.94
2017-08-09T06:28:44.840Z,59.13
2017-08-09T06:29:46.733Z,59.33
2017-08-09T06:31:00.896Z,59.52
2017-08-09T06:32:02.789Z,59.42
2017-08-09T06:33:04.680Z,59.30
2017-08-09T06:34:06.574Z,59.91
2017-08-09T06:35:08.404Z,59.61
2017-08-09T06:36:10.233Z,59.69
2017-08-09T06:37:12.127Z,59.71
2017-08-09T06:38:14.031Z,59.42
2017-08-09T06:39:15.928Z,59.33
2017-08-09T06:40:30.092Z,58.45
2017-08-09T06:41:31.987Z,58.58
2017-08-09T06:42:33.879Z,58.29
2017-08-09T06:43:35.773Z,57.83
2017-08-09T06:44:37.614Z,57.44
2017-08-09T06:45:39.443Z,56.76
2017-08-09T06:46:41.336Z,56.96
2017-08-09T06:47:43.230Z,56.67
2017-08-09T06:48:45.122Z,56.50
2017-08-09T06:49:59.268Z,55.82
2017-08-09T06:51:01.100Z,56.18
2017-08-09T06:52:02.932Z,56.11
2017-08-09T06:53:04.785Z,56.28
2017-08-09T06:54:06.676Z,56.18
2017-08-09T06:55:08.565Z,56.47
2017-08-09T06:56:10.409Z,56.47
2017-08-09T06:57:12.239Z,56.47
2017-08-09T06:58:14.070Z,56.86
2017-08-09T06:59:28.293Z,57.06
2017-08-09T07:00:30.184Z,57.44
2017-08-09T07:01:32.077Z,57.83
2017-08-09T07:02:33.968Z,58.19
2017-08-09T07:03:35.797Z,58.48
2017-08-09T07:04:37.622Z,58.29
2017-08-09T07:05:39.523Z,58.29
2017-08-09T07:06:41.426Z,58.87
2017-08-09T07:07:43.316Z,58.55
2017-08-09T07:08:57.480Z,59.23
2017-08-09T07:09:59.369Z,59.03
2017-08-09T07:11:01.261Z,59.61
2017-08-09T07:12:03.152Z,59.71
2017-08-09T07:13:04.981Z,59.42
2017-08-09T07:14:06.809Z,59.42
2017-08-09T07:15:08.699Z,59.52
2017-08-09T07:16:10.592Z,59.52
2017-08-09T07:17:12.482Z,59.52
2017-08-09T07:18:26.647Z,59.71
2017-08-09T07:19:28.540Z,59.64
2017-08-09T07:20:30.430Z,59.16
2017-08-09T07:21:32.325Z,59.26
2017-08-09T07:22:34.154Z,58.48
2017-08-09T07:23:35.996Z,58.51
2017-08-09T07:24:37.887Z,58.70
2017-08-09T07:25:39.792Z,57.76
2017-08-09T07:26:41.683Z,57.57
2017-08-09T07:27:55.833Z,57.28
2017-08-09T07:28:57.670Z,56.34
2017-08-09T07:29:59.555Z,55.94
2017-08-09T07:31:01.452Z,55.55
2017-08-09T07:32:03.348Z,55.78
2017-08-09T07:33:05.201Z,55.36
2017-08-09T07:34:07.010Z,55.19
2017-08-09T07:35:08.901Z,55.10
2017-08-09T07:36:10.792Z,55.29
2017-08-09T07:37:25.076Z,55.10
2017-08-09T07:38:26.959Z,55.58
2017-08-09T07:39:28.849Z,54.78
2017-08-09T07:40:30.744Z,55.39
2017-08-09T07:41:32.579Z,54.71
2017-08-09T07:42:34.414Z,54.42
2017-08-09T07:43:36.302Z,54.32
2017-08-09T07:44:38.195Z,54.03
2017-08-09T07:45:40.088Z,54.13
2017-08-09T07:46:54.256Z,54.35
2017-08-09T07:47:56.145Z,53.86
2017-08-09T07:48:58.039Z,53.18
2017-08-09T07:49:59.930Z,53.28
2017-08-09T07:51:01.760Z,52.82
2017-08-09T07:52:03.639Z,53.11
2017-08-09T07:53:05.471Z,52.92
2017-08-09T07:54:07.362Z,52.84
2017-08-09T07:55:09.255Z,52.06
2017-08-09T07:56:23.422Z,52.19
2017-08-09T07:57:25.315Z,50.92
2017-08-09T07:58:27.207Z,51.12
2017-08-09T07:59:29.101Z,50.24
2017-08-09T08:00:30.933Z,50.73
2017-08-09T08:01:32.767Z,50.73
2017-08-09T08:02:34.658Z,50.24
2017-08-09T08:03:36.552Z,50.14
2017-08-09T08:04:38.446Z,50.43
2017-08-09T08:05:52.614Z,49.95
2017-08-09T08:06:54.507Z,49.78
2017-08-09T08:07:56.403Z,49.58
2017-08-09T08:08:58.299Z,49.58
2017-08-09T08:10:00.131Z,49.39
2017-08-09T08:11:01.964Z,49.39
2017-08-09T08:12:03.858Z,49.68
2017-08-09T08:13:05.753Z,49.58
2017-08-09T08:14:07.645Z,49.85
2017-08-09T08:15:21.862Z,49.85
2017-08-09T08:16:23.755Z,49.76
2017-08-09T08:17:25.643Z,50.04
2017-08-09T08:18:27.534Z,50.31
2017-08-09T08:19:29.366Z,50.21
2017-08-09T08:20:31.207Z,51.09
2017-08-09T08:21:33.106Z,50.90
2017-08-09T08:22:34.994Z,51.26
2017-08-09T08:23:36.882Z,52.06
2017-08-09T08:24:51.123Z,51.94
2017-08-09T08:25:53.013Z,51.94
2017-08-09T08:26:54.905Z,52.14
2017-08-09T08:27:56.801Z,52.72
2017-08-09T08:28:58.629Z,52.69
2017-08-09T08:30:00.461Z,52.89
2017-08-09T08:31:02.353Z,53.08
2017-08-09T08:32:04.245Z,52.89
2017-08-09T08:33:06.139Z,53.28
2017-08-09T08:34:20.354Z,53.35
2017-08-09T08:35:22.247Z,53.38
2017-08-09T08:36:24.137Z,53.18
2017-08-09T08:37:26.029Z,52.89
2017-08-09T08:38:27.858Z,52.53
2017-08-09T08:39:29.690Z,52.14
2017-08-09T08:40:31.583Z,52.06
2017-08-09T08:41:33.476Z,51.97
2017-08-09T08:42:35.368Z,51.58
2017-08-09T08:43:49.539Z,50.73
2017-08-09T08:44:51.430Z,50.92
2017-08-09T08:45:53.323Z,50.43
2017-08-09T08:46:55.216Z,49.68
2017-08-09T08:47:57.051Z,49.68
2017-08-09T08:48:58.882Z,49.02
2017-08-09T08:50:00.774Z,48.14
2017-08-09T08:51:02.673Z,47.75
2017-08-09T08:52:04.565Z,47.66
2017-08-09T08:53:18.783Z,47.66
2017-08-09T08:54:20.686Z,47.39
2017-08-09T08:55:22.574Z,47.66
2017-08-09T08:56:24.478Z,47.56
2017-08-09T08:57:26.309Z,47.66
2017-08-09T08:58:28.138Z,48.05
2017-08-09T08:59:30.044Z,47.85
2017-08-09T09:00:31.956Z,48.22
2017-08-09T09:01:33.845Z,48.22
2017-08-09T09:02:48.013Z,48.78
2017-08-09T09:03:49.904Z,49.17
2017-08-09T09:04:51.795Z,49.37
2017-08-09T09:05:53.687Z,49.37
2017-08-09T09:06:55.519Z,49.44
2017-08-09T09:07:57.349Z,49.34
2017-08-09T09:08:59.240Z,49.46
2017-08-09T09:10:01.132Z,49.66
2017-08-09T09:11:03.024Z,49.07
2017-08-09T09:12:17.191Z,48.88
2017-08-09T09:13:19.081Z,48.88
2017-08-09T09:14:20.973Z,49.17
2017-08-09T09:15:22.864Z,49.66
2017-08-09T09:16:24.706Z,49.27
2017-08-09T09:17:26.547Z,49.85
2017-08-09T09:18:28.380Z,49.85
2017-08-09T09:19:30.217Z,49.37
2017-08-09T09:20:32.055Z,49.66
2017-08-09T09:21:46.218Z,48.90
2017-08-09T09:22:48.132Z,48.90
2017-08-09T09:23:50.018Z,48.14
2017-08-09T09:24:51.925Z,47.85
2017-08-09T09:25:53.778Z,47.66
2017-08-09T09:26:55.610Z,46.97
2017-08-09T09:27:57.506Z,46.22
2017-08-09T09:28:59.413Z,46.31
2017-08-09T09:30:01.293Z,46.31
2017-08-09T09:31:15.466Z,46.31
2017-08-09T09:32:17.360Z,46.12
2017-08-09T09:33:19.252Z,46.04
2017-08-09T09:34:21.146Z,45.65
2017-08-09T09:35:22.978Z,45.46
2017-08-09T09:36:24.813Z,44.78
2017-08-09T09:37:26.706Z,44.68
2017-08-09T09:38:28.603Z,44.68
2017-08-09T09:39:30.497Z,44.60
2017-08-09T09:40:44.666Z,44.21
2017-08-09T09:41:46.559Z,43.92
2017-08-09T09:42:48.454Z,43.65
2017-08-09T09:43:50.351Z,43.85
2017-08-09T09:44:52.187Z,43.07
2017-08-09T09:45:54.016Z,42.97
2017-08-09T09:46:55.921Z,43.26
2017-08-09T09:47:57.827Z,42.87
2017-08-09T09:48:59.723Z,43.36
2017-08-09T09:50:13.894Z,43.07
2017-08-09T09:51:15.791Z,43.07
2017-08-09T09:52:17.683Z,43.16
2017-08-09T09:53:19.574Z,42.89
2017-08-09T09:54:21.419Z,42.50
2017-08-09T09:55:23.253Z,42.60
2017-08-09T09:56:25.147Z,42.60
2017-08-09T09:57:27.042Z,42.89
2017-08-09T09:58:28.935Z,42.89
2017-08-09T09:59:43.104Z,42.69
2017-08-09T10:00:44.996Z,42.99
2017-08-09T10:01:46.892Z,42.69
2017-08-09T10:02:48.803Z,42.69
2017-08-09T10:03:50.636Z,42.60
2017-08-09T10:04:52.479Z,42.77
2017-08-09T10:05:54.366Z,42.97
2017-08-09T10:06:56.258Z,42.77
2017-08-09T10:07:58.157Z,43.07
2017-08-09T10:09:12.323Z,43.04
2017-08-09T10:10:14.214Z,43.24
2017-08-09T10:11:16.110Z,43.73
2017-08-09T10:12:17.999Z,43.82
2017-08-09T10:13:19.843Z,43.92
2017-08-09T10:14:21.672Z,43.53
2017-08-09T10:15:23.565Z,43.82
2017-08-09T10:16:25.472Z,43.61
2017-08-09T10:17:27.370Z,43.71
2017-08-09T10:18:41.556Z,43.71
2017-08-09T10:19:43.449Z,43.99
2017-08-09T10:20:45.341Z,44.37
2017-08-09T10:21:47.235Z,45.15
2017-08-09T10:22:49.079Z,45.25
2017-08-09T10:23:50.905Z,45.64
2017-08-09T10:24:52.798Z,46.12
2017-08-09T10:25:54.697Z,46.12
2017-08-09T10:26:56.598Z,46.00
2017-08-09T10:28:10.769Z,45.92
2017-08-09T10:29:12.662Z,45.90
2017-08-09T10:30:14.554Z,46.39
2017-08-09T10:31:16.445Z,46.88
2017-08-09T10:32:18.278Z,47.27
2017-08-09T10:33:20.105Z,46.88
2017-08-09T10:34:21.999Z,47.27
2017-08-09T10:35:23.891Z,46.49
2017-08-09T10:36:25.784Z,46.69
2017-08-09T10:37:39.951Z,46.88
2017-08-09T10:38:41.840Z,46.69
2017-08-09T10:39:43.738Z,46.88
2017-08-09T10:40:45.638Z,46.59
2017-08-09T10:41:47.471Z,46.69
2017-08-09T10:42:49.385Z,46.69
2017-08-09T10:43:51.254Z,46.88
2017-08-09T10:44:53.146Z,46.69
2017-08-09T10:45:55.068Z,46.88
2017-08-09T10:47:09.233Z,46.30
2017-08-09T10:48:11.150Z,46.27
2017-08-09T10:49:13.018Z,46.30
2017-08-09T10:50:14.911Z,46.30
2017-08-09T10:51:16.740Z,46.27
2017-08-09T10:52:18.601Z,46.20
2017-08-09T10:53:20.477Z,46.10
2017-08-09T10:54:22.369Z,45.90
2017-08-09T10:55:24.259Z,45.71
2017-08-09T10:56:38.427Z,45.32
2017-08-09T10:57:40.320Z,45.20
2017-08-09T10:58:42.211Z,45.32
2017-08-09T10:59:44.101Z,45.42
2017-08-09T11:00:45.933Z,45.32
2017-08-09T11:01:47.761Z,45.78
2017-08-09T11:02:49.667Z,46.17
2017-08-09T11:03:51.563Z,46.08
2017-08-09T11:04:53.453Z,46.37
2017-08-09T11:06:07.619Z,47.05
2017-08-09T11:07:09.508Z,47.05
2017-08-09T11:08:11.402Z,46.86
2017-08-09T11:09:13.295Z,46.86
2017-08-09T11:10:15.124Z,46.66
2017-08-09T11:11:16.953Z,46.27
2017-08-09T11:12:18.857Z,46.49
2017-08-09T11:13:20.750Z,46.10
2017-08-09T11:14:22.641Z,46.00
2017-08-09T11:15:36.808Z,46.00
2017-08-09T11:16:38.701Z,45.81
2017-08-09T11:17:40.591Z,45.61
2017-08-09T11:18:42.484Z,45.71
2017-08-09T11:19:44.314Z,45.51
2017-08-09T11:20:46.142Z,45.12
2017-08-09T11:21:48.032Z,45.51
2017-08-09T11:22:49.926Z,44.83
2017-08-09T11:23:51.815Z,45.22
2017-08-09T11:25:05.983Z,44.83
2017-08-09T11:26:07.874Z,45.42
2017-08-09T11:27:09.767Z,45.12
2017-08-09T11:28:11.658Z,45.22
2017-08-09T11:29:13.491Z,45.25
2017-08-09T11:30:15.322Z,45.25
2017-08-09T11:31:17.215Z,44.85
2017-08-09T11:32:19.109Z,44.76
2017-08-09T11:33:20.999Z,44.46
2017-08-09T11:34:35.177Z,44.27
2017-08-09T11:35:37.067Z,43.78
2017-08-09T11:36:38.960Z,43.90
2017-08-09T11:37:40.851Z,43.22
2017-08-09T11:38:42.707Z,43.12
2017-08-09T11:39:44.529Z,43.02
2017-08-09T11:40:46.421Z,43.02
2017-08-09T11:41:48.326Z,43.14
2017-08-09T11:42:50.218Z,43.02
2017-08-09T11:44:04.388Z,43.12
2017-08-09T11:45:06.279Z,42.93
2017-08-09T11:46:08.171Z,42.83
2017-08-09T11:47:10.061Z,42.93
2017-08-09T11:48:11.903Z,42.44
2017-08-09T11:49:13.735Z,42.24
2017-08-09T11:50:15.629Z,42.54
2017-08-09T11:51:17.523Z,42.51
2017-08-09T11:52:19.415Z,42.51
2017-08-09T11:53:33.582Z,43.00
2017-08-09T11:54:35.472Z,43.78
2017-08-09T11:55:37.373Z,43.59
2017-08-09T11:56:39.272Z,43.78
2017-08-09T11:57:41.102Z,43.88
2017-08-09T11:58:42.937Z,43.59
2017-08-09T11:59:44.829Z,43.59
2017-08-09T12:00:46.726Z,43.19
2017-08-09T12:01:48.616Z,43.85
2017-08-09T12:03:02.783Z,43.95
2017-08-09T12:04:04.677Z,44.56
2017-08-09T12:05:06.581Z,44.64
2017-08-09T12:06:08.466Z,44.34
2017-08-09T12:07:10.301Z,44.73
2017-08-09T12:08:12.129Z,44.44
2017-08-09T12:09:14.023Z,44.93
2017-08-09T12:10:15.918Z,44.64
2017-08-09T12:11:17.811Z,44.05
2017-08-09T12:12:31.976Z,44.05
2017-08-09T12:13:33.866Z,43.95
2017-08-09T12:14:35.758Z,43.95
2017-08-09T12:15:37.650Z,43.98
2017-08-09T12:16:39.480Z,43.78
2017-08-09T12:17:41.308Z,43.78
2017-08-09T12:18:43.202Z,43.88
2017-08-09T12:19:45.093Z,42.71
2017-08-09T12:20:46.995Z,42.71
2017-08-09T12:22:01.165Z,42.61
2017-08-09T12:23:03.067Z,41.83
2017-08-09T12:24:04.954Z,41.63
2017-08-09T12:24:46.468Z,41.63
2017-08-09T12:25:48.356Z,41.54
2017-08-09T12:26:50.247Z,41.54
2017-08-09T12:27:52.079Z,41.25
2017-08-09T12:28:53.910Z,41.35
2017-08-09T12:29:55.800Z,41.15
2017-08-09T12:30:57.719Z,41.44
2017-08-09T12:31:59.615Z,41.44
2017-08-09T12:33:01.466Z,41.63
2017-08-09T12:34:15.635Z,42.22
2017-08-09T12:35:18.055Z,42.41
2017-08-09T12:36:20.325Z,42.41
2017-08-09T12:37:22.560Z,41.73
2017-08-09T12:38:24.410Z,41.73
2017-08-09T12:39:26.271Z,41.44
2017-08-09T12:40:28.151Z,41.93
2017-08-09T12:41:30.048Z,42.32
2017-08-09T12:42:31.940Z,42.61
2017-08-09T12:43:46.114Z,42.51
2017-08-09T12:44:48.003Z,42.71
2017-08-09T12:45:49.898Z,42.79
2017-08-09T12:46:51.794Z,43.18
2017-08-09T12:47:53.618Z,43.10
2017-08-09T12:48:55.456Z,42.59
2017-08-09T12:49:57.368Z,42.51
2017-08-09T12:50:59.255Z,42.41
2017-08-09T12:52:01.148Z,42.61
2017-08-09T12:53:15.315Z,42.71
2017-08-09T12:54:17.715Z,42.71
2017-08-09T12:55:19.618Z,42.61
2017-08-09T12:56:21.870Z,42.41
2017-08-09T12:57:23.714Z,42.32
2017-08-09T12:58:25.546Z,42.51
2017-08-09T12:59:27.440Z,42.41
2017-08-09T13:00:29.340Z,42.51
2017-08-09T13:01:31.232Z,42.12
2017-08-09T13:02:45.403Z,42.51
2017-08-09T13:03:47.296Z,42.41
2017-08-09T13:04:49.193Z,41.93
2017-08-09T13:05:51.089Z,41.73
2017-08-09T13:06:52.925Z,41.83
2017-08-09T13:07:54.758Z,41.44
2017-08-09T13:08:57.040Z,41.44
2017-08-09T13:09:58.960Z,41.63
2017-08-09T13:11:00.855Z,41.63
2017-08-09T13:12:15.022Z,41.83
2017-08-09T13:13:16.911Z,41.54
2017-08-09T13:14:18.807Z,41.54
2017-08-09T13:15:20.698Z,41.63
2017-08-09T13:16:22.528Z,41.54
2017-08-09T13:17:24.366Z,41.54
2017-08-09T13:18:26.254Z,41.83
2017-08-09T13:19:28.154Z,41.93
2017-08-09T13:20:30.052Z,41.81
2017-08-09T13:21:44.215Z,41.73
2017-08-09T13:22:46.106Z,41.73
2017-08-09T13:23:48.386Z,41.63
2017-08-09T13:24:50.262Z,41.63
2017-08-09T13:25:52.090Z,41.63
2017-08-09T13:26:53.924Z,41.36
2017-08-09T13:27:55.783Z,41.36
2017-08-09T13:28:57.617Z,41.46
2017-08-09T13:29:59.450Z,41.75
2017-08-09T13:31:13.620Z,41.56
2017-08-09T13:32:15.507Z,41.56
2017-08-09T13:33:17.403Z,41.75
2017-08-09T13:34:19.294Z,41.75